sensor_id;sensor_type;location;lat;lon;timestamp;P1;durP1;ratioP1;P2;durP2;ratioP2
12788;SDS011;6458;42.710;23.192;2023-09-08T00:00:06;8.53;;;7.73;;
12788;SDS011;6458;42.710;23.192;2023-09-08T00:02:34;8.50;;;7.60;;
12788;SDS011;6458;42.710;23.192;2023-09-08T00:05:01;15.23;;;8.23;;
12788;SDS011;6458;42.710;23.192;2023-09-08T00:07:28;9.10;;;8.20;;
12788;SDS011;6458;42.710;23.192;2023-09-08T00:09:56;10.23;;;9.07;;
12788;SDS011;6458;42.710;23.192;2023-09-08T00:12:24;10.07;;;8.63;;
12788;SDS011;6458;42.710;23.192;2023-09-08T00:14:50;10.23;;;8.40;;
12788;SDS011;6458;42.710;23.192;2023-09-08T00:17:17;9.87;;;8.87;;
12788;SDS011;6458;42.710;23.192;2023-09-08T00:19:44;11.30;;;9.53;;
12788;SDS011;6458;42.710;23.192;2023-09-08T00:22:11;13.47;;;10.90;;
12788;SDS011;6458;42.710;23.192;2023-09-08T00:24:38;12.00;;;10.80;;
12788;SDS011;6458;42.710;23.192;2023-09-08T00:27:07;10.53;;;9.43;;
12788;SDS011;6458;42.710;23.192;2023-09-08T00:29:34;12.87;;;9.43;;
12788;SDS011;6458;42.710;23.192;2023-09-08T00:32:01;13.80;;;11.60;;
12788;SDS011;6458;42.710;23.192;2023-09-08T00:34:28;14.77;;;11.20;;
12788;SDS011;6458;42.710;23.192;2023-09-08T00:36:56;14.87;;;12.33;;
12788;SDS011;6458;42.710;23.192;2023-09-08T00:39:23;15.40;;;11.13;;
12788;SDS011;6458;42.710;23.192;2023-09-08T00:41:49;11.50;;;10.30;;
12788;SDS011;6458;42.710;23.192;2023-09-08T00:44:18;12.10;;;10.87;;
12788;SDS011;6458;42.710;23.192;2023-09-08T00:46:45;11.27;;;10.07;;
12788;SDS011;6458;42.710;23.192;2023-09-08T00:49:12;12.47;;;10.70;;
12788;SDS011;6458;42.710;23.192;2023-09-08T00:51:39;12.77;;;9.30;;
12788;SDS011;6458;42.710;23.192;2023-09-08T00:54:06;9.13;;;8.23;;
12788;SDS011;6458;42.710;23.192;2023-09-08T00:56:34;9.03;;;8.13;;
12788;SDS011;6458;42.710;23.192;2023-09-08T00:59:03;9.93;;;8.73;;
12788;SDS011;6458;42.710;23.192;2023-09-08T01:01:32;8.63;;;7.93;;
12788;SDS011;6458;42.710;23.192;2023-09-08T01:04:00;10.03;;;8.27;;
12788;SDS011;6458;42.710;23.192;2023-09-08T01:06:27;9.27;;;7.27;;
12788;SDS011;6458;42.710;23.192;2023-09-08T01:08:56;8.40;;;7.60;;
12788;SDS011;6458;42.710;23.192;2023-09-08T01:11:23;11.37;;;7.43;;
12788;SDS011;6458;42.710;23.192;2023-09-08T01:13:50;8.63;;;7.30;;
12788;SDS011;6458;42.710;23.192;2023-09-08T01:16:17;7.73;;;6.80;;
12788;SDS011;6458;42.710;23.192;2023-09-08T01:18:45;8.97;;;7.00;;
12788;SDS011;6458;42.710;23.192;2023-09-08T01:21:30;9.07;;;7.30;;
12788;SDS011;6458;42.710;23.192;2023-09-08T01:24:17;6.97;;;6.33;;
12788;SDS011;6458;42.710;23.192;2023-09-08T01:26:57;8.23;;;6.17;;
12788;SDS011;6458;42.710;23.192;2023-09-08T01:29:24;9.07;;;6.43;;
12788;SDS011;6458;42.710;23.192;2023-09-08T01:31:53;7.43;;;6.67;;
12788;SDS011;6458;42.710;23.192;2023-09-08T01:34:20;8.53;;;7.63;;
12788;SDS011;6458;42.710;23.192;2023-09-08T01:36:47;8.13;;;7.10;;
12788;SDS011;6458;42.710;23.192;2023-09-08T01:39:15;7.03;;;6.43;;
12788;SDS011;6458;42.710;23.192;2023-09-08T01:41:42;7.57;;;6.87;;
12788;SDS011;6458;42.710;23.192;2023-09-08T01:44:10;8.53;;;6.97;;
12788;SDS011;6458;42.710;23.192;2023-09-08T01:46:37;7.07;;;6.43;;
12788;SDS011;6458;42.710;23.192;2023-09-08T01:49:06;8.83;;;6.30;;
12788;SDS011;6458;42.710;23.192;2023-09-08T01:51:33;7.67;;;6.93;;
12788;SDS011;6458;42.710;23.192;2023-09-08T01:54:00;6.87;;;6.03;;
12788;SDS011;6458;42.710;23.192;2023-09-08T01:56:27;6.87;;;6.23;;
12788;SDS011;6458;42.710;23.192;2023-09-08T01:58:54;6.10;;;5.50;;
12788;SDS011;6458;42.710;23.192;2023-09-08T02:01:22;9.17;;;6.63;;
12788;SDS011;6458;42.710;23.192;2023-09-08T02:03:49;6.47;;;5.70;;
12788;SDS011;6458;42.710;23.192;2023-09-08T02:06:16;8.57;;;5.93;;
12788;SDS011;6458;42.710;23.192;2023-09-08T02:08:43;6.87;;;6.10;;
12788;SDS011;6458;42.710;23.192;2023-09-08T02:11:10;6.67;;;6.07;;
12788;SDS011;6458;42.710;23.192;2023-09-08T02:13:37;7.10;;;6.40;;
12788;SDS011;6458;42.710;23.192;2023-09-08T02:16:05;7.17;;;6.60;;
12788;SDS011;6458;42.710;23.192;2023-09-08T02:18:33;6.60;;;6.00;;
12788;SDS011;6458;42.710;23.192;2023-09-08T02:21:00;7.47;;;6.23;;
12788;SDS011;6458;42.710;23.192;2023-09-08T02:23:27;10.33;;;6.33;;
12788;SDS011;6458;42.710;23.192;2023-09-08T02:25:54;7.27;;;6.23;;
12788;SDS011;6458;42.710;23.192;2023-09-08T02:28:21;7.93;;;6.30;;
12788;SDS011;6458;42.710;23.192;2023-09-08T02:30:48;8.00;;;7.20;;
12788;SDS011;6458;42.710;23.192;2023-09-08T02:33:15;10.10;;;7.03;;
12788;SDS011;6458;42.710;23.192;2023-09-08T02:35:43;7.83;;;7.03;;
12788;SDS011;6458;42.710;23.192;2023-09-08T02:38:10;7.67;;;6.87;;
12788;SDS011;6458;42.710;23.192;2023-09-08T02:40:37;8.37;;;7.57;;
12788;SDS011;6458;42.710;23.192;2023-09-08T02:43:04;11.20;;;7.60;;
12788;SDS011;6458;42.710;23.192;2023-09-08T02:45:31;10.70;;;8.47;;
12788;SDS011;6458;42.710;23.192;2023-09-08T02:47:58;9.10;;;8.20;;
12788;SDS011;6458;42.710;23.192;2023-09-08T02:50:25;10.73;;;8.07;;
12788;SDS011;6458;42.710;23.192;2023-09-08T02:52:54;8.47;;;7.53;;
12788;SDS011;6458;42.710;23.192;2023-09-08T02:55:20;10.93;;;8.87;;
12788;SDS011;6458;42.710;23.192;2023-09-08T02:57:47;10.23;;;8.07;;
12788;SDS011;6458;42.710;23.192;2023-09-08T03:00:15;9.43;;;8.23;;
12788;SDS011;6458;42.710;23.192;2023-09-08T03:02:42;9.37;;;7.93;;
12788;SDS011;6458;42.710;23.192;2023-09-08T03:05:09;9.23;;;8.40;;
12788;SDS011;6458;42.710;23.192;2023-09-08T03:07:36;10.63;;;8.80;;
12788;SDS011;6458;42.710;23.192;2023-09-08T03:10:06;10.40;;;9.30;;
12788;SDS011;6458;42.710;23.192;2023-09-08T03:12:34;11.57;;;9.97;;
12788;SDS011;6458;42.710;23.192;2023-09-08T03:15:01;10.50;;;9.50;;
12788;SDS011;6458;42.710;23.192;2023-09-08T03:17:29;12.00;;;8.40;;
12788;SDS011;6458;42.710;23.192;2023-09-08T03:19:56;12.97;;;8.50;;
12788;SDS011;6458;42.710;23.192;2023-09-08T03:22:24;10.13;;;8.20;;
12788;SDS011;6458;42.710;23.192;2023-09-08T03:24:51;9.87;;;8.87;;
12788;SDS011;6458;42.710;23.192;2023-09-08T03:27:20;9.73;;;8.70;;
12788;SDS011;6458;42.710;23.192;2023-09-08T03:29:47;11.87;;;9.00;;
12788;SDS011;6458;42.710;23.192;2023-09-08T03:32:14;11.63;;;9.53;;
12788;SDS011;6458;42.710;23.192;2023-09-08T03:34:41;16.53;;;10.60;;
12788;SDS011;6458;42.710;23.192;2023-09-08T03:37:08;13.10;;;9.10;;
12788;SDS011;6458;42.710;23.192;2023-09-08T03:39:35;8.63;;;7.27;;
12788;SDS011;6458;42.710;23.192;2023-09-08T03:42:02;9.60;;;7.57;;
12788;SDS011;6458;42.710;23.192;2023-09-08T03:44:31;10.00;;;7.83;;
12788;SDS011;6458;42.710;23.192;2023-09-08T03:46:58;7.93;;;7.23;;
12788;SDS011;6458;42.710;23.192;2023-09-08T03:49:24;10.40;;;7.33;;
12788;SDS011;6458;42.710;23.192;2023-09-08T03:51:52;9.67;;;8.77;;
12788;SDS011;6458;42.710;23.192;2023-09-08T03:54:19;10.30;;;8.53;;
12788;SDS011;6458;42.710;23.192;2023-09-08T03:56:45;9.53;;;8.73;;
12788;SDS011;6458;42.710;23.192;2023-09-08T03:59:12;10.17;;;8.83;;
12788;SDS011;6458;42.710;23.192;2023-09-08T04:01:41;9.57;;;8.67;;
12788;SDS011;6458;42.710;23.192;2023-09-08T04:04:08;10.87;;;9.60;;
12788;SDS011;6458;42.710;23.192;2023-09-08T04:06:35;8.73;;;7.83;;
12788;SDS011;6458;42.710;23.192;2023-09-08T04:09:02;9.90;;;8.10;;
12788;SDS011;6458;42.710;23.192;2023-09-08T04:11:29;12.40;;;7.93;;
12788;SDS011;6458;42.710;23.192;2023-09-08T04:13:56;10.57;;;8.83;;
12788;SDS011;6458;42.710;23.192;2023-09-08T04:16:23;11.47;;;9.33;;
12788;SDS011;6458;42.710;23.192;2023-09-08T04:18:52;10.83;;;9.70;;
12788;SDS011;6458;42.710;23.192;2023-09-08T04:21:19;10.17;;;9.00;;
12788;SDS011;6458;42.710;23.192;2023-09-08T04:23:46;12.90;;;9.67;;
12788;SDS011;6458;42.710;23.192;2023-09-08T04:26:13;12.23;;;10.03;;
12788;SDS011;6458;42.710;23.192;2023-09-08T04:28:40;12.53;;;10.10;;
12788;SDS011;6458;42.710;23.192;2023-09-08T04:31:07;11.77;;;9.63;;
12788;SDS011;6458;42.710;23.192;2023-09-08T04:33:34;12.43;;;9.93;;
12788;SDS011;6458;42.710;23.192;2023-09-08T04:36:04;10.97;;;9.67;;
12788;SDS011;6458;42.710;23.192;2023-09-08T04:38:32;11.77;;;10.30;;
12788;SDS011;6458;42.710;23.192;2023-09-08T04:41:00;11.57;;;9.03;;
12788;SDS011;6458;42.710;23.192;2023-09-08T04:43:26;11.63;;;8.60;;
12788;SDS011;6458;42.710;23.192;2023-09-08T04:45:53;14.57;;;9.97;;
12788;SDS011;6458;42.710;23.192;2023-09-08T04:48:20;10.33;;;8.80;;
12788;SDS011;6458;42.710;23.192;2023-09-08T04:50:47;11.07;;;9.20;;
12788;SDS011;6458;42.710;23.192;2023-09-08T04:53:17;11.83;;;9.90;;
12788;SDS011;6458;42.710;23.192;2023-09-08T04:55:44;11.90;;;10.60;;
12788;SDS011;6458;42.710;23.192;2023-09-08T04:58:11;13.87;;;9.77;;
12788;SDS011;6458;42.710;23.192;2023-09-08T05:00:38;11.63;;;9.77;;
12788;SDS011;6458;42.710;23.192;2023-09-08T05:03:05;10.83;;;9.80;;
12788;SDS011;6458;42.710;23.192;2023-09-08T05:05:32;10.90;;;9.80;;
12788;SDS011;6458;42.710;23.192;2023-09-08T05:07:59;13.37;;;9.60;;
12788;SDS011;6458;42.710;23.192;2023-09-08T05:10:28;10.37;;;9.47;;
12788;SDS011;6458;42.710;23.192;2023-09-08T05:12:55;10.63;;;9.63;;
12788;SDS011;6458;42.710;23.192;2023-09-08T05:15:22;10.93;;;9.80;;
12788;SDS011;6458;42.710;23.192;2023-09-08T05:17:50;12.57;;;9.57;;
12788;SDS011;6458;42.710;23.192;2023-09-08T05:20:17;8.97;;;8.17;;
12788;SDS011;6458;42.710;23.192;2023-09-08T05:22:44;8.63;;;7.93;;
12788;SDS011;6458;42.710;23.192;2023-09-08T05:25:11;9.17;;;8.47;;
12788;SDS011;6458;42.710;23.192;2023-09-08T05:27:40;9.40;;;8.43;;
12788;SDS011;6458;42.710;23.192;2023-09-08T05:30:08;10.37;;;9.30;;
12788;SDS011;6458;42.710;23.192;2023-09-08T05:32:39;9.03;;;8.20;;
12788;SDS011;6458;42.710;23.192;2023-09-08T05:35:06;11.77;;;9.03;;
12788;SDS011;6458;42.710;23.192;2023-09-08T05:37:33;9.73;;;8.93;;
12788;SDS011;6458;42.710;23.192;2023-09-08T05:40:01;13.57;;;10.20;;
12788;SDS011;6458;42.710;23.192;2023-09-08T05:42:30;10.97;;;9.87;;
12788;SDS011;6458;42.710;23.192;2023-09-08T05:44:58;10.83;;;9.57;;
12788;SDS011;6458;42.710;23.192;2023-09-08T05:47:25;10.57;;;9.57;;
12788;SDS011;6458;42.710;23.192;2023-09-08T05:49:56;10.93;;;9.83;;
12788;SDS011;6458;42.710;23.192;2023-09-08T05:52:23;10.80;;;9.90;;
12788;SDS011;6458;42.710;23.192;2023-09-08T05:54:51;11.17;;;10.03;;
12788;SDS011;6458;42.710;23.192;2023-09-08T05:57:18;10.90;;;9.80;;
12788;SDS011;6458;42.710;23.192;2023-09-08T05:59:47;11.17;;;9.23;;
12788;SDS011;6458;42.710;23.192;2023-09-08T06:02:16;10.93;;;9.93;;
12788;SDS011;6458;42.710;23.192;2023-09-08T06:04:43;10.37;;;9.37;;
12788;SDS011;6458;42.710;23.192;2023-09-08T06:07:10;14.53;;;10.13;;
12788;SDS011;6458;42.710;23.192;2023-09-08T06:09:40;10.67;;;9.77;;
12788;SDS011;6458;42.710;23.192;2023-09-08T06:12:07;10.30;;;9.07;;
12788;SDS011;6458;42.710;23.192;2023-09-08T06:14:34;10.50;;;9.47;;
12788;SDS011;6458;42.710;23.192;2023-09-08T06:17:01;11.00;;;8.57;;
12788;SDS011;6458;42.710;23.192;2023-09-08T06:19:29;9.27;;;7.67;;
12788;SDS011;6458;42.710;23.192;2023-09-08T06:21:56;7.47;;;6.83;;
12788;SDS011;6458;42.710;23.192;2023-09-08T06:24:23;7.37;;;6.67;;
12788;SDS011;6458;42.710;23.192;2023-09-08T06:26:50;10.50;;;7.40;;
12788;SDS011;6458;42.710;23.192;2023-09-08T06:29:17;7.77;;;7.17;;
12788;SDS011;6458;42.710;23.192;2023-09-08T06:31:44;8.40;;;7.33;;
12788;SDS011;6458;42.710;23.192;2023-09-08T06:34:11;7.57;;;6.87;;
12788;SDS011;6458;42.710;23.192;2023-09-08T06:36:39;9.40;;;7.57;;
12788;SDS011;6458;42.710;23.192;2023-09-08T06:39:06;8.30;;;7.13;;
12788;SDS011;6458;42.710;23.192;2023-09-08T06:41:33;8.63;;;7.67;;
12788;SDS011;6458;42.710;23.192;2023-09-08T06:44:00;6.13;;;5.37;;
12788;SDS011;6458;42.710;23.192;2023-09-08T06:46:27;7.20;;;6.13;;
12788;SDS011;6458;42.710;23.192;2023-09-08T06:48:54;6.73;;;5.40;;
12788;SDS011;6458;42.710;23.192;2023-09-08T06:51:21;6.93;;;5.80;;
12788;SDS011;6458;42.710;23.192;2023-09-08T06:53:55;6.47;;;5.73;;
12788;SDS011;6458;42.710;23.192;2023-09-08T06:56:22;6.60;;;5.97;;
12788;SDS011;6458;42.710;23.192;2023-09-08T06:58:50;6.93;;;6.33;;
12788;SDS011;6458;42.710;23.192;2023-09-08T07:01:16;7.27;;;5.60;;
12788;SDS011;6458;42.710;23.192;2023-09-08T07:03:43;6.67;;;5.67;;
12788;SDS011;6458;42.710;23.192;2023-09-08T07:06:10;6.47;;;5.70;;
12788;SDS011;6458;42.710;23.192;2023-09-08T07:08:37;5.57;;;5.17;;
12788;SDS011;6458;42.710;23.192;2023-09-08T07:11:06;4.70;;;4.40;;
12788;SDS011;6458;42.710;23.192;2023-09-08T07:13:33;5.10;;;4.80;;
12788;SDS011;6458;42.710;23.192;2023-09-08T07:15:59;5.70;;;5.20;;
12788;SDS011;6458;42.710;23.192;2023-09-08T07:18:26;6.67;;;5.80;;
12788;SDS011;6458;42.710;23.192;2023-09-08T07:20:53;4.87;;;4.57;;
12788;SDS011;6458;42.710;23.192;2023-09-08T07:23:21;5.20;;;4.73;;
12788;SDS011;6458;42.710;23.192;2023-09-08T07:25:48;5.40;;;5.00;;
12788;SDS011;6458;42.710;23.192;2023-09-08T07:28:16;6.47;;;5.00;;
12788;SDS011;6458;42.710;23.192;2023-09-08T07:30:43;4.83;;;4.53;;
12788;SDS011;6458;42.710;23.192;2023-09-08T07:33:10;5.50;;;4.43;;
12788;SDS011;6458;42.710;23.192;2023-09-08T07:35:37;5.10;;;4.70;;
12788;SDS011;6458;42.710;23.192;2023-09-08T07:38:05;5.13;;;4.83;;
12788;SDS011;6458;42.710;23.192;2023-09-08T07:40:33;4.53;;;4.20;;
12788;SDS011;6458;42.710;23.192;2023-09-08T07:43:00;4.67;;;4.30;;
12788;SDS011;6458;42.710;23.192;2023-09-08T07:45:29;4.20;;;3.90;;
12788;SDS011;6458;42.710;23.192;2023-09-08T07:47:56;4.87;;;4.20;;
12788;SDS011;6458;42.710;23.192;2023-09-08T07:50:23;4.83;;;4.43;;
12788;SDS011;6458;42.710;23.192;2023-09-08T07:52:54;5.07;;;4.33;;
12788;SDS011;6458;42.710;23.192;2023-09-08T07:55:22;5.53;;;4.40;;
12788;SDS011;6458;42.710;23.192;2023-09-08T07:57:54;8.17;;;4.30;;
12788;SDS011;6458;42.710;23.192;2023-09-08T08:00:22;5.00;;;4.70;;
12788;SDS011;6458;42.710;23.192;2023-09-08T08:02:51;4.40;;;4.10;;
12788;SDS011;6458;42.710;23.192;2023-09-08T08:05:21;4.33;;;3.93;;
12788;SDS011;6458;42.710;23.192;2023-09-08T08:07:48;4.90;;;4.50;;
12788;SDS011;6458;42.710;23.192;2023-09-08T08:10:15;6.10;;;4.23;;
12788;SDS011;6458;42.710;23.192;2023-09-08T08:12:43;7.80;;;4.53;;
12788;SDS011;6458;42.710;23.192;2023-09-08T08:15:10;4.27;;;4.03;;
12788;SDS011;6458;42.710;23.192;2023-09-08T08:17:37;4.60;;;4.20;;
12788;SDS011;6458;42.710;23.192;2023-09-08T08:20:07;3.90;;;3.70;;
12788;SDS011;6458;42.710;23.192;2023-09-08T08:22:42;4.90;;;4.60;;
12788;SDS011;6458;42.710;23.192;2023-09-08T08:25:09;4.40;;;4.03;;
12788;SDS011;6458;42.710;23.192;2023-09-08T08:27:36;5.23;;;4.13;;
12788;SDS011;6458;42.710;23.192;2023-09-08T08:30:03;4.73;;;4.43;;
12788;SDS011;6458;42.710;23.192;2023-09-08T08:32:32;4.60;;;4.30;;
12788;SDS011;6458;42.710;23.192;2023-09-08T08:35:00;4.97;;;4.57;;
12788;SDS011;6458;42.710;23.192;2023-09-08T08:37:28;4.97;;;4.57;;
12788;SDS011;6458;42.710;23.192;2023-09-08T08:39:57;4.67;;;4.30;;
12788;SDS011;6458;42.710;23.192;2023-09-08T08:42:24;4.20;;;3.93;;
12788;SDS011;6458;42.710;23.192;2023-09-08T08:44:58;4.50;;;4.20;;
12788;SDS011;6458;42.710;23.192;2023-09-08T08:47:25;4.53;;;4.33;;
12788;SDS011;6458;42.710;23.192;2023-09-08T08:49:55;4.93;;;4.43;;
12788;SDS011;6458;42.710;23.192;2023-09-08T08:52:23;5.53;;;5.13;;
12788;SDS011;6458;42.710;23.192;2023-09-08T08:54:52;5.10;;;4.57;;
12788;SDS011;6458;42.710;23.192;2023-09-08T08:57:19;4.50;;;4.20;;
12788;SDS011;6458;42.710;23.192;2023-09-08T08:59:48;4.90;;;4.60;;
12788;SDS011;6458;42.710;23.192;2023-09-08T09:02:16;4.17;;;3.90;;
12788;SDS011;6458;42.710;23.192;2023-09-08T09:04:45;4.73;;;4.43;;
12788;SDS011;6458;42.710;23.192;2023-09-08T09:07:12;4.67;;;4.27;;
12788;SDS011;6458;42.710;23.192;2023-09-08T09:09:40;8.90;;;4.60;;
12788;SDS011;6458;42.710;23.192;2023-09-08T09:12:08;4.80;;;4.50;;
12788;SDS011;6458;42.710;23.192;2023-09-08T09:14:35;5.80;;;4.30;;
12788;SDS011;6458;42.710;23.192;2023-09-08T09:17:02;4.33;;;3.97;;
12788;SDS011;6458;42.710;23.192;2023-09-08T09:19:30;4.43;;;4.10;;
12788;SDS011;6458;42.710;23.192;2023-09-08T09:21:58;4.63;;;4.30;;
12788;SDS011;6458;42.710;23.192;2023-09-08T09:24:28;4.67;;;4.30;;
12788;SDS011;6458;42.710;23.192;2023-09-08T09:26:57;5.37;;;4.47;;
12788;SDS011;6458;42.710;23.192;2023-09-08T09:29:25;4.77;;;4.43;;
12788;SDS011;6458;42.710;23.192;2023-09-08T09:31:53;4.90;;;4.47;;
12788;SDS011;6458;42.710;23.192;2023-09-08T09:34:22;4.40;;;4.10;;
12788;SDS011;6458;42.710;23.192;2023-09-08T09:36:49;4.43;;;4.03;;
12788;SDS011;6458;42.710;23.192;2023-09-08T09:39:17;4.57;;;4.27;;
12788;SDS011;6458;42.710;23.192;2023-09-08T09:41:45;4.80;;;3.93;;
12788;SDS011;6458;42.710;23.192;2023-09-08T09:44:12;4.60;;;4.17;;
12788;SDS011;6458;42.710;23.192;2023-09-08T09:46:44;4.63;;;4.27;;
12788;SDS011;6458;42.710;23.192;2023-09-08T09:49:11;5.13;;;4.37;;
12788;SDS011;6458;42.710;23.192;2023-09-08T09:51:42;4.23;;;3.93;;
12788;SDS011;6458;42.710;23.192;2023-09-08T09:54:11;5.57;;;4.57;;
12788;SDS011;6458;42.710;23.192;2023-09-08T09:56:39;4.93;;;4.60;;
12788;SDS011;6458;42.710;23.192;2023-09-08T09:59:07;4.77;;;4.47;;
12788;SDS011;6458;42.710;23.192;2023-09-08T10:01:35;4.23;;;3.93;;
12788;SDS011;6458;42.710;23.192;2023-09-08T10:04:04;4.47;;;4.20;;
12788;SDS011;6458;42.710;23.192;2023-09-08T10:06:31;4.87;;;4.30;;
12788;SDS011;6458;42.710;23.192;2023-09-08T10:08:59;4.60;;;4.30;;
12788;SDS011;6458;42.710;23.192;2023-09-08T10:11:29;4.97;;;4.57;;
12788;SDS011;6458;42.710;23.192;2023-09-08T10:14:01;4.70;;;4.30;;
12788;SDS011;6458;42.710;23.192;2023-09-08T10:16:28;5.13;;;4.63;;
12788;SDS011;6458;42.710;23.192;2023-09-08T10:19:01;4.67;;;4.30;;
12788;SDS011;6458;42.710;23.192;2023-09-08T10:21:36;4.77;;;4.23;;
12788;SDS011;6458;42.710;23.192;2023-09-08T10:24:08;4.33;;;4.13;;
12788;SDS011;6458;42.710;23.192;2023-09-08T10:26:43;4.63;;;4.20;;
12788;SDS011;6458;42.710;23.192;2023-09-08T10:29:11;4.30;;;4.00;;
12788;SDS011;6458;42.710;23.192;2023-09-08T10:31:39;4.30;;;4.10;;
12788;SDS011;6458;42.710;23.192;2023-09-08T10:34:09;4.57;;;4.23;;
12788;SDS011;6458;42.710;23.192;2023-09-08T10:36:36;5.13;;;4.70;;
12788;SDS011;6458;42.710;23.192;2023-09-08T10:45:00;4.80;;;4.40;;
12788;SDS011;6458;42.710;23.192;2023-09-08T10:47:33;5.30;;;4.80;;
12788;SDS011;6458;42.710;23.192;2023-09-08T10:50:09;5.10;;;4.70;;
12788;SDS011;6458;42.710;23.192;2023-09-08T10:52:42;4.80;;;4.37;;
12788;SDS011;6458;42.710;23.192;2023-09-08T10:55:09;6.27;;;4.27;;
12788;SDS011;6458;42.710;23.192;2023-09-08T10:57:37;4.90;;;4.50;;
12788;SDS011;6458;42.710;23.192;2023-09-08T11:00:11;4.80;;;4.43;;
12788;SDS011;6458;42.710;23.192;2023-09-08T11:02:47;9.40;;;4.50;;
12788;SDS011;6458;42.710;23.192;2023-09-08T11:05:17;4.30;;;4.00;;
12788;SDS011;6458;42.710;23.192;2023-09-08T11:07:45;4.90;;;4.50;;
12788;SDS011;6458;42.710;23.192;2023-09-08T11:10:15;5.20;;;4.70;;
12788;SDS011;6458;42.710;23.192;2023-09-08T11:12:42;4.83;;;4.43;;
12788;SDS011;6458;42.710;23.192;2023-09-08T11:15:09;4.67;;;4.23;;
12788;SDS011;6458;42.710;23.192;2023-09-08T11:17:37;5.67;;;4.73;;
12788;SDS011;6458;42.710;23.192;2023-09-08T11:20:08;4.70;;;4.30;;
12788;SDS011;6458;42.710;23.192;2023-09-08T11:22:37;5.23;;;4.77;;
12788;SDS011;6458;42.710;23.192;2023-09-08T11:25:06;5.50;;;4.70;;
12788;SDS011;6458;42.710;23.192;2023-09-08T11:27:36;5.30;;;4.90;;
12788;SDS011;6458;42.710;23.192;2023-09-08T11:30:05;4.60;;;4.33;;
12788;SDS011;6458;42.710;23.192;2023-09-08T11:32:33;5.67;;;4.33;;
12788;SDS011;6458;42.710;23.192;2023-09-08T11:35:03;5.07;;;4.70;;
12788;SDS011;6458;42.710;23.192;2023-09-08T11:37:34;9.00;;;4.70;;
12788;SDS011;6458;42.710;23.192;2023-09-08T11:40:06;4.90;;;4.47;;
12788;SDS011;6458;42.710;23.192;2023-09-08T11:42:37;4.90;;;4.60;;
12788;SDS011;6458;42.710;23.192;2023-09-08T11:45:09;4.97;;;4.53;;
12788;SDS011;6458;42.710;23.192;2023-09-08T11:47:39;4.90;;;4.60;;
12788;SDS011;6458;42.710;23.192;2023-09-08T11:50:08;4.67;;;4.37;;
12788;SDS011;6458;42.710;23.192;2023-09-08T11:52:41;4.80;;;4.30;;
12788;SDS011;6458;42.710;23.192;2023-09-08T11:55:14;4.93;;;4.50;;
12788;SDS011;6458;42.710;23.192;2023-09-08T11:57:46;9.30;;;5.10;;
12788;SDS011;6458;42.710;23.192;2023-09-08T12:00:46;7.23;;;4.67;;
12788;SDS011;6458;42.710;23.192;2023-09-08T12:03:24;4.80;;;4.50;;
12788;SDS011;6458;42.710;23.192;2023-09-08T12:05:52;4.47;;;4.27;;
12788;SDS011;6458;42.710;23.192;2023-09-08T12:08:24;4.93;;;4.03;;
12788;SDS011;6458;42.710;23.192;2023-09-08T12:10:55;4.90;;;4.60;;
12788;SDS011;6458;42.710;23.192;2023-09-08T12:13:25;5.90;;;5.30;;
12788;SDS011;6458;42.710;23.192;2023-09-08T12:15:52;4.83;;;4.40;;
12788;SDS011;6458;42.710;23.192;2023-09-08T12:18:19;4.87;;;4.50;;
12788;SDS011;6458;42.710;23.192;2023-09-08T12:21:04;6.13;;;5.00;;
12788;SDS011;6458;42.710;23.192;2023-09-08T12:23:32;5.73;;;4.70;;
12788;SDS011;6458;42.710;23.192;2023-09-08T12:26:00;5.30;;;4.93;;
12788;SDS011;6458;42.710;23.192;2023-09-08T12:28:30;5.27;;;4.77;;
12788;SDS011;6458;42.710;23.192;2023-09-08T12:30:58;4.97;;;4.57;;
12788;SDS011;6458;42.710;23.192;2023-09-08T12:33:25;4.97;;;4.70;;
12788;SDS011;6458;42.710;23.192;2023-09-08T12:35:53;5.17;;;4.87;;
12788;SDS011;6458;42.710;23.192;2023-09-08T12:38:20;5.50;;;5.07;;
12788;SDS011;6458;42.710;23.192;2023-09-08T12:40:47;4.90;;;4.47;;
12788;SDS011;6458;42.710;23.192;2023-09-08T12:43:16;5.80;;;4.70;;
12788;SDS011;6458;42.710;23.192;2023-09-08T12:45:43;5.00;;;4.70;;
12788;SDS011;6458;42.710;23.192;2023-09-08T12:48:13;4.30;;;4.10;;
12788;SDS011;6458;42.710;23.192;2023-09-08T12:50:41;5.50;;;4.93;;
12788;SDS011;6458;42.710;23.192;2023-09-08T12:53:08;5.30;;;5.00;;
12788;SDS011;6458;42.710;23.192;2023-09-08T12:55:35;5.37;;;4.87;;
12788;SDS011;6458;42.710;23.192;2023-09-08T12:58:05;5.03;;;4.73;;
12788;SDS011;6458;42.710;23.192;2023-09-08T13:00:34;5.07;;;4.53;;
12788;SDS011;6458;42.710;23.192;2023-09-08T13:03:01;5.33;;;4.83;;
12788;SDS011;6458;42.710;23.192;2023-09-08T13:05:31;6.00;;;4.30;;
12788;SDS011;6458;42.710;23.192;2023-09-08T13:07:58;4.77;;;4.50;;
12788;SDS011;6458;42.710;23.192;2023-09-08T13:10:25;5.23;;;4.83;;
12788;SDS011;6458;42.710;23.192;2023-09-08T13:12:52;5.10;;;4.70;;
12788;SDS011;6458;42.710;23.192;2023-09-08T13:15:19;6.90;;;4.93;;
12788;SDS011;6458;42.710;23.192;2023-09-08T13:17:50;5.07;;;4.77;;
12788;SDS011;6458;42.710;23.192;2023-09-08T13:20:17;5.03;;;4.53;;
12788;SDS011;6458;42.710;23.192;2023-09-08T13:22:44;5.43;;;4.77;;
12788;SDS011;6458;42.710;23.192;2023-09-08T13:25:11;5.23;;;4.93;;
12788;SDS011;6458;42.710;23.192;2023-09-08T13:27:40;5.50;;;5.03;;
12788;SDS011;6458;42.710;23.192;2023-09-08T13:30:08;5.10;;;4.60;;
12788;SDS011;6458;42.710;23.192;2023-09-08T13:32:36;4.90;;;4.60;;
12788;SDS011;6458;42.710;23.192;2023-09-08T13:35:04;6.97;;;4.80;;
12788;SDS011;6458;42.710;23.192;2023-09-08T13:37:32;4.57;;;4.27;;
12788;SDS011;6458;42.710;23.192;2023-09-08T13:40:03;4.80;;;4.50;;
12788;SDS011;6458;42.710;23.192;2023-09-08T13:42:30;6.30;;;4.90;;
12788;SDS011;6458;42.710;23.192;2023-09-08T13:44:57;4.97;;;4.50;;
12788;SDS011;6458;42.710;23.192;2023-09-08T13:47:24;5.17;;;4.67;;
12788;SDS011;6458;42.710;23.192;2023-09-08T13:49:54;4.87;;;4.63;;
12788;SDS011;6458;42.710;23.192;2023-09-08T13:52:23;4.97;;;4.60;;
12788;SDS011;6458;42.710;23.192;2023-09-08T13:54:50;5.77;;;4.60;;
12788;SDS011;6458;42.710;23.192;2023-09-08T13:57:17;5.47;;;4.43;;
12788;SDS011;6458;42.710;23.192;2023-09-08T13:59:44;5.53;;;5.03;;
12788;SDS011;6458;42.710;23.192;2023-09-08T14:02:11;5.50;;;5.00;;
12788;SDS011;6458;42.710;23.192;2023-09-08T14:04:38;7.17;;;4.70;;
12788;SDS011;6458;42.710;23.192;2023-09-08T14:07:07;4.77;;;4.40;;
12788;SDS011;6458;42.710;23.192;2023-09-08T14:09:35;5.20;;;4.83;;
12788;SDS011;6458;42.710;23.192;2023-09-08T14:12:03;6.07;;;4.80;;
12788;SDS011;6458;42.710;23.192;2023-09-08T14:14:30;5.70;;;5.27;;
12788;SDS011;6458;42.710;23.192;2023-09-08T14:16:57;8.23;;;4.60;;
12788;SDS011;6458;42.710;23.192;2023-09-08T14:19:24;6.90;;;4.67;;
12788;SDS011;6458;42.710;23.192;2023-09-08T14:21:51;5.20;;;4.80;;
12788;SDS011;6458;42.710;23.192;2023-09-08T14:24:18;5.57;;;5.00;;
12788;SDS011;6458;42.710;23.192;2023-09-08T14:26:46;4.73;;;4.43;;
12788;SDS011;6458;42.710;23.192;2023-09-08T14:29:13;4.97;;;4.57;;
12788;SDS011;6458;42.710;23.192;2023-09-08T14:31:40;4.80;;;4.50;;
12788;SDS011;6458;42.710;23.192;2023-09-08T14:34:08;5.23;;;4.83;;
12788;SDS011;6458;42.710;23.192;2023-09-08T14:36:35;5.13;;;4.20;;
12788;SDS011;6458;42.710;23.192;2023-09-08T14:39:02;5.20;;;4.77;;
12788;SDS011;6458;42.710;23.192;2023-09-08T14:41:29;5.40;;;4.23;;
12788;SDS011;6458;42.710;23.192;2023-09-08T14:43:57;4.63;;;4.23;;
12788;SDS011;6458;42.710;23.192;2023-09-08T14:46:24;4.83;;;4.43;;
12788;SDS011;6458;42.710;23.192;2023-09-08T14:48:51;4.87;;;4.57;;
12788;SDS011;6458;42.710;23.192;2023-09-08T14:51:18;4.63;;;4.30;;
12788;SDS011;6458;42.710;23.192;2023-09-08T14:53:45;5.10;;;4.63;;